createdAt,value
2018-07-06T00:00:34.152Z,10.47
2018-07-06T00:03:14.551Z,11.07
2018-07-06T00:05:57.223Z,11.10
2018-07-06T00:08:39.235Z,11.77
2018-07-06T00:11:21.220Z,12.63
2018-07-06T00:14:03.438Z,12.20
2018-07-06T00:16:51.252Z,11.97
2018-07-06T00:19:32.214Z,11.73
2018-07-06T00:22:14.127Z,11.53
2018-07-06T00:24:54.311Z,10.90
2018-07-06T00:27:34.763Z,11.63
2018-07-06T00:30:16.747Z,11.90
2018-07-06T00:32:57.519Z,13.57
2018-07-06T00:35:37.821Z,14.00
2018-07-06T00:38:18.547Z,13.47
2018-07-06T00:40:59.011Z,12.87
2018-07-06T00:43:39.575Z,12.27
2018-07-06T00:46:14.419Z,13.50
2018-07-06T00:48:55.194Z,12.77
2018-07-06T00:51:37.286Z,14.00
2018-07-06T00:54:17.560Z,13.43
2018-07-06T00:56:59.431Z,12.67
2018-07-06T00:59:47.690Z,14.47
2018-07-06T01:02:28.343Z,13.20
2018-07-06T01:05:10.143Z,13.33
2018-07-06T01:07:44.506Z,13.07
2018-07-06T01:10:32.294Z,13.70
2018-07-06T01:13:12.783Z,15.03
2018-07-06T01:15:54.147Z,15.77
2018-07-06T01:18:36.060Z,16.20
2018-07-06T01:21:19.982Z,15.70
2018-07-06T01:23:54.382Z,15.87
2018-07-06T01:26:34.867Z,16.73
2018-07-06T01:29:17.174Z,16.37
2018-07-06T01:31:57.503Z,14.43
2018-07-06T01:34:37.963Z,17.57
2018-07-06T01:37:18.350Z,16.30
2018-07-06T01:39:58.826Z,17.37
2018-07-06T01:42:41.014Z,17.50
2018-07-06T01:45:21.261Z,16.77
2018-07-06T01:48:01.856Z,15.80
2018-07-06T01:50:37.615Z,13.00
2018-07-06T01:53:19.915Z,14.20
2018-07-06T01:55:54.314Z,14.53
2018-07-06T01:58:36.949Z,14.70
2018-07-06T02:01:18.539Z,12.90
2018-07-06T02:04:00.531Z,13.23
2018-07-06T02:06:42.538Z,11.90
2018-07-06T02:09:17.066Z,12.60
2018-07-06T02:11:58.871Z,12.60
2018-07-06T02:14:40.842Z,11.40
2018-07-06T02:17:22.847Z,11.93
2018-07-06T02:20:03.208Z,12.90
2018-07-06T02:22:44.148Z,12.20
2018-07-06T02:25:24.464Z,12.13
2018-07-06T02:28:04.806Z,13.47
2018-07-06T02:30:47.016Z,13.47
2018-07-06T02:33:27.244Z,12.33
2018-07-06T02:36:07.737Z,12.50
2018-07-06T02:38:48.294Z,14.43
2018-07-06T02:41:29.839Z,12.20
2018-07-06T02:44:11.267Z,11.70
2018-07-06T02:46:51.388Z,12.80
2018-07-06T02:49:31.803Z,12.50
2018-07-06T02:52:14.054Z,12.90
2018-07-06T02:54:54.554Z,12.10
2018-07-06T02:57:30.528Z,13.40
2018-07-06T03:00:12.324Z,13.57
2018-07-06T03:02:52.702Z,14.17
2018-07-06T03:05:33.448Z,12.60
2018-07-06T03:08:07.723Z,13.90
2018-07-06T03:10:48.084Z,14.60
2018-07-06T03:13:30.540Z,12.90
2018-07-06T03:16:11.868Z,12.20
2018-07-06T03:18:53.919Z,12.40
2018-07-06T03:21:34.314Z,12.73
2018-07-06T03:24:14.604Z,12.43
2018-07-06T03:26:54.862Z,12.43
2018-07-06T03:29:36.243Z,11.83
2018-07-06T03:32:16.628Z,12.80
2018-07-06T03:34:50.979Z,11.33
2018-07-06T03:37:31.103Z,12.80
2018-07-06T03:40:11.557Z,11.77
2018-07-06T03:42:53.375Z,14.63
2018-07-06T03:45:33.547Z,12.80
2018-07-06T03:48:13.885Z,12.50
2018-07-06T03:50:55.919Z,12.53
2018-07-06T03:53:36.126Z,12.43
2018-07-06T03:56:16.416Z,11.63
2018-07-06T03:58:57.978Z,11.00
2018-07-06T04:01:40.475Z,10.67
2018-07-06T04:04:20.963Z,10.00
2018-07-06T04:06:55.225Z,9.77
2018-07-06T04:09:35.458Z,9.10
2018-07-06T04:12:17.140Z,10.40
2018-07-06T04:14:58.761Z,10.30
2018-07-06T04:17:40.963Z,10.50
2018-07-06T04:20:21.423Z,9.77
2018-07-06T04:23:01.612Z,9.20
2018-07-06T04:25:42.070Z,10.27
2018-07-06T04:31:09.269Z,9.63
2018-07-06T04:33:49.667Z,8.73
2018-07-06T04:36:30.277Z,11.10
2018-07-06T04:39:10.556Z,10.83
2018-07-06T04:41:56.121Z,9.97
2018-07-06T04:44:36.738Z,12.60
2018-07-06T04:47:17.050Z,10.27
2018-07-06T04:50:00.626Z,12.10
2018-07-06T04:52:42.338Z,11.13
2018-07-06T04:55:24.300Z,11.40
2018-07-06T05:00:47.052Z,11.20
2018-07-06T05:03:27.284Z,10.30
2018-07-06T05:06:07.957Z,11.10
2018-07-06T05:08:48.223Z,11.37
2018-07-06T05:11:28.922Z,10.30
2018-07-06T05:14:13.489Z,13.00
2018-07-06T05:17:00.725Z,12.07
2018-07-06T05:19:40.943Z,12.50
2018-07-06T05:22:21.522Z,17.03
2018-07-06T05:25:01.846Z,14.77
2018-07-06T05:27:42.518Z,12.37
2018-07-06T05:30:24.080Z,11.77
2018-07-06T05:33:04.399Z,11.73
2018-07-06T05:35:44.969Z,10.87
2018-07-06T05:38:25.115Z,10.90
2018-07-06T05:41:05.335Z,10.50
2018-07-06T05:43:46.767Z,10.20
2018-07-06T05:46:27.299Z,11.83
2018-07-06T05:49:07.761Z,9.70
2018-07-06T05:51:49.339Z,10.60
2018-07-06T05:54:31.083Z,10.50
2018-07-06T05:57:13.010Z,10.87
2018-07-06T05:59:58.787Z,11.10
2018-07-06T06:02:39.324Z,10.43
2018-07-06T06:05:13.574Z,11.07
2018-07-06T06:07:42.630Z,11.00
2018-07-06T06:10:12.211Z,10.80
2018-07-06T06:12:42.705Z,11.60
2018-07-06T06:15:13.109Z,10.70
2018-07-06T06:17:43.676Z,10.60
2018-07-06T06:20:15.004Z,11.60
2018-07-06T06:22:44.079Z,10.80
2018-07-06T06:25:12.845Z,11.17
2018-07-06T06:27:41.860Z,10.50
2018-07-06T06:30:13.008Z,9.97
2018-07-06T06:32:42.199Z,9.40
2018-07-06T06:35:11.098Z,10.60
2018-07-06T06:37:40.186Z,10.10
2018-07-06T06:40:09.088Z,11.23
2018-07-06T06:42:39.553Z,9.97
2018-07-06T06:45:08.515Z,11.30
2018-07-06T06:47:37.693Z,10.30
2018-07-06T06:50:12.708Z,11.63
2018-07-06T06:52:42.976Z,11.23
2018-07-06T06:55:11.861Z,10.70
2018-07-06T06:57:42.069Z,11.90
2018-07-06T07:00:12.740Z,11.47
2018-07-06T07:02:42.724Z,11.00
2018-07-06T07:05:11.589Z,10.30
2018-07-06T07:07:41.748Z,12.50
2018-07-06T07:10:10.565Z,10.73
2018-07-06T07:12:41.324Z,10.13
2018-07-06T07:15:11.616Z,10.57
2018-07-06T07:17:42.021Z,10.27
2018-07-06T07:20:11.943Z,10.53
2018-07-06T07:22:40.882Z,10.57
2018-07-06T07:25:10.527Z,10.47
2018-07-06T07:27:39.644Z,10.57
2018-07-06T07:30:09.904Z,10.80
2018-07-06T07:32:39.431Z,9.83
2018-07-06T07:35:08.769Z,9.90
2018-07-06T07:37:37.694Z,9.80
2018-07-06T07:40:06.628Z,9.43
2018-07-06T07:42:37.105Z,10.10
2018-07-06T07:45:05.874Z,10.10
2018-07-06T07:50:11.646Z,11.80
2018-07-06T07:52:53.177Z,11.07
2018-07-06T07:55:22.144Z,13.40
2018-07-06T07:57:52.353Z,12.80
2018-07-06T08:00:23.065Z,13.57
2018-07-06T08:02:53.314Z,14.83
2018-07-06T08:05:22.114Z,13.67
2018-07-06T08:07:51.149Z,13.90
2018-07-06T08:10:20.689Z,14.07
2018-07-06T08:12:58.626Z,13.60
2018-07-06T08:15:29.355Z,13.90
2018-07-06T08:17:59.651Z,15.20
2018-07-06T08:20:28.326Z,13.63
2018-07-06T08:22:57.304Z,14.40
2018-07-06T08:25:26.407Z,13.50
2018-07-06T08:27:55.252Z,13.50
2018-07-06T08:30:25.554Z,14.37
2018-07-06T08:32:55.718Z,13.70
2018-07-06T08:35:36.048Z,13.60
2018-07-06T08:38:07.116Z,13.50
2018-07-06T08:40:36.088Z,12.73
2018-07-06T08:43:07.023Z,12.70
2018-07-06T08:45:37.413Z,12.90
2018-07-06T08:48:06.641Z,13.13
2018-07-06T08:50:37.417Z,13.57
2018-07-06T08:53:07.898Z,14.20
2018-07-06T08:55:36.831Z,12.77
2018-07-06T08:58:12.308Z,13.40
2018-07-06T09:00:42.666Z,14.70
2018-07-06T09:03:12.698Z,14.57
2018-07-06T09:05:41.384Z,13.47
2018-07-06T09:08:11.966Z,14.30
2018-07-06T09:10:40.971Z,13.30
2018-07-06T09:13:09.991Z,13.77
2018-07-06T09:15:40.535Z,14.60
2018-07-06T09:18:11.499Z,14.83
2018-07-06T09:20:40.606Z,14.70
2018-07-06T09:23:09.585Z,14.50
2018-07-06T09:25:38.689Z,16.23
2018-07-06T09:28:07.748Z,13.97
2018-07-06T09:30:37.987Z,14.00
2018-07-06T09:33:07.047Z,13.00
2018-07-06T09:35:35.995Z,15.33
2018-07-06T09:38:05.363Z,13.90
2018-07-06T09:40:34.394Z,13.63
2018-07-06T09:43:04.961Z,12.97
2018-07-06T09:45:35.378Z,12.03
2018-07-06T09:48:05.772Z,13.27
2018-07-06T09:50:36.163Z,12.00
2018-07-06T09:53:06.290Z,12.97
2018-07-06T09:55:35.198Z,13.80
2018-07-06T09:58:11.485Z,11.90
2018-07-06T10:00:46.992Z,12.93
2018-07-06T10:03:17.332Z,13.13
2018-07-06T10:05:46.355Z,11.07
2018-07-06T10:08:15.214Z,9.57
2018-07-06T10:10:44.492Z,10.53
2018-07-06T10:13:13.411Z,10.90
2018-07-06T10:15:44.152Z,9.93
2018-07-06T10:18:14.482Z,10.20
2018-07-06T10:20:43.166Z,9.33
2018-07-06T10:23:12.252Z,9.20
2018-07-06T10:25:41.638Z,9.23
2018-07-06T10:28:16.483Z,8.53
2018-07-06T10:32:05.140Z,9.53
2018-07-06T10:34:34.715Z,10.00
2018-07-06T10:37:03.719Z,10.70
2018-07-06T10:39:34.333Z,12.20
2018-07-06T10:42:04.601Z,11.17
2018-07-06T10:44:34.826Z,9.90
2018-07-06T10:47:03.632Z,11.30
2018-07-06T10:49:34.237Z,10.80
2018-07-06T10:52:05.180Z,10.93
2018-07-06T10:54:34.307Z,10.40
2018-07-06T10:57:05.009Z,9.57
2018-07-06T10:59:43.435Z,10.07
2018-07-06T11:02:13.610Z,9.60
2018-07-06T11:04:42.741Z,8.93
2018-07-06T11:07:11.717Z,8.80
2018-07-06T11:09:40.576Z,8.73
2018-07-06T11:12:09.578Z,9.27
2018-07-06T11:14:40.545Z,9.40
2018-07-06T11:17:10.888Z,9.33
2018-07-06T11:19:39.957Z,9.43
2018-07-06T11:22:08.902Z,8.83
2018-07-06T11:24:37.937Z,8.00
2018-07-06T11:27:06.960Z,8.77
2018-07-06T11:29:37.098Z,7.87
2018-07-06T11:32:06.454Z,7.87
2018-07-06T11:34:35.344Z,7.20
2018-07-06T11:37:04.345Z,7.20
2018-07-06T11:39:35.220Z,7.00
2018-07-06T11:42:05.565Z,6.67
2018-07-06T11:44:36.136Z,7.07
2018-07-06T11:47:05.104Z,7.40
2018-07-06T11:49:35.496Z,7.97
2018-07-06T11:52:05.785Z,7.43
2018-07-06T11:54:34.701Z,7.20
2018-07-06T11:57:03.748Z,8.30
2018-07-06T12:02:09.584Z,6.80
2018-07-06T12:04:38.623Z,6.80
2018-07-06T12:07:08.739Z,5.80
2018-07-06T12:09:38.067Z,8.00
2018-07-06T12:12:07.138Z,6.23
2018-07-06T12:14:43.107Z,6.10
2018-07-06T12:17:13.436Z,5.63
2018-07-06T12:19:42.432Z,5.90
2018-07-06T12:22:11.666Z,5.60
2018-07-06T12:24:41.818Z,5.17
2018-07-06T12:27:10.767Z,5.77
2018-07-06T12:29:41.204Z,4.13
2018-07-06T12:32:10.423Z,3.90
2018-07-06T12:34:39.223Z,4.30
2018-07-06T12:37:09.590Z,4.63
2018-07-06T12:39:40.126Z,4.57
2018-07-06T12:42:10.442Z,4.70
2018-07-06T12:44:40.898Z,4.67
2018-07-06T12:47:10.126Z,4.17
2018-07-06T12:49:40.525Z,4.70
2018-07-06T12:52:11.881Z,3.77
2018-07-06T12:54:40.790Z,5.43
2018-07-06T12:57:11.194Z,4.23
2018-07-06T12:59:47.056Z,4.87
2018-07-06T13:02:17.552Z,4.53
2018-07-06T13:04:46.831Z,3.73
2018-07-06T13:07:15.752Z,5.10
2018-07-06T13:09:44.978Z,3.97
2018-07-06T13:12:14.131Z,4.23
2018-07-06T13:14:44.883Z,3.90
2018-07-06T13:17:15.753Z,4.27
2018-07-06T13:19:44.548Z,3.70
2018-07-06T13:22:13.983Z,4.23
2018-07-06T13:24:42.947Z,3.73
2018-07-06T13:27:12.205Z,4.10
2018-07-06T13:29:42.559Z,3.73
2018-07-06T13:32:12.323Z,3.57
2018-07-06T13:34:42.903Z,3.13
2018-07-06T13:37:12.122Z,3.43
2018-07-06T13:39:40.915Z,3.10
2018-07-06T13:42:11.269Z,3.27
2018-07-06T13:44:41.567Z,2.90
2018-07-06T13:47:10.506Z,3.10
2018-07-06T13:49:40.963Z,2.60
2018-07-06T13:52:11.565Z,3.60
2018-07-06T13:54:40.456Z,2.80
2018-07-06T13:57:09.376Z,2.73
2018-07-06T13:59:46.843Z,2.90
2018-07-06T14:02:17.311Z,2.60
2018-07-06T14:04:46.218Z,2.20
2018-07-06T14:07:15.346Z,2.87
2018-07-06T14:09:44.365Z,2.43
2018-07-06T14:12:13.643Z,2.20
2018-07-06T14:14:44.021Z,2.80
2018-07-06T14:17:14.860Z,2.97
2018-07-06T14:19:43.796Z,2.70
2018-07-06T14:22:12.823Z,2.40
2018-07-06T14:24:41.744Z,2.13
2018-07-06T14:27:11.350Z,2.07
2018-07-06T14:29:41.711Z,2.63
2018-07-06T14:32:13.336Z,2.17
2018-07-06T14:34:42.298Z,2.67
2018-07-06T14:37:11.223Z,2.60
2018-07-06T14:39:40.684Z,1.90
2018-07-06T14:42:11.210Z,2.50
2018-07-06T14:44:41.638Z,2.40
2018-07-06T14:47:10.592Z,2.10
2018-07-06T14:49:41.271Z,2.00
2018-07-06T14:52:11.692Z,1.90
2018-07-06T14:54:40.694Z,1.90
2018-07-06T14:57:09.611Z,1.90
2018-07-06T14:59:47.000Z,1.80
2018-07-06T15:02:17.032Z,1.97
2018-07-06T15:04:46.042Z,2.47
2018-07-06T15:07:14.955Z,1.83
2018-07-06T15:09:43.978Z,2.10
2018-07-06T15:12:13.112Z,1.67
2018-07-06T15:14:44.255Z,2.30
2018-07-06T15:17:15.388Z,2.00
2018-07-06T15:19:44.535Z,1.90
2018-07-06T15:22:13.427Z,1.90
2018-07-06T15:24:42.478Z,1.80
2018-07-06T15:27:11.490Z,2.40
2018-07-06T15:29:42.750Z,1.77
2018-07-06T15:32:13.347Z,1.63
2018-07-06T15:34:42.359Z,2.23
2018-07-06T15:37:11.372Z,2.23
2018-07-06T15:39:40.886Z,1.70
2018-07-06T15:42:11.295Z,1.87
2018-07-06T15:44:41.628Z,1.80
2018-07-06T15:47:10.542Z,2.30
2018-07-06T15:49:40.786Z,2.13
2018-07-06T15:52:11.490Z,1.97
2018-07-06T15:54:40.407Z,2.33
2018-07-06T15:57:09.401Z,2.23
2018-07-06T15:59:47.062Z,1.90
2018-07-06T16:02:17.264Z,2.07
2018-07-06T16:04:46.362Z,1.60
2018-07-06T16:07:15.440Z,1.90
2018-07-06T16:09:44.447Z,2.00
2018-07-06T16:12:15.880Z,1.90
2018-07-06T16:14:46.168Z,1.80
2018-07-06T16:17:16.617Z,1.80
2018-07-06T16:19:45.550Z,1.80
2018-07-06T16:22:14.491Z,1.73
2018-07-06T16:24:43.749Z,1.77
2018-07-06T16:27:14.652Z,1.70
2018-07-06T16:29:44.994Z,1.73
2018-07-06T16:32:13.940Z,1.60
2018-07-06T16:34:43.187Z,1.50
2018-07-06T16:37:12.354Z,1.97
2018-07-06T16:39:46.104Z,2.60
2018-07-06T16:42:16.526Z,1.57
2018-07-06T16:44:47.567Z,1.80
2018-07-06T16:47:16.532Z,1.90
2018-07-06T16:49:47.223Z,1.93
2018-07-06T16:52:18.460Z,1.83
2018-07-06T16:54:47.238Z,1.70
2018-07-06T16:57:16.056Z,2.27
2018-07-06T16:59:48.499Z,1.73
2018-07-06T17:02:18.973Z,1.90
2018-07-06T17:04:47.969Z,2.07
2018-07-06T17:07:17.372Z,2.20
2018-07-06T17:09:46.399Z,1.67
2018-07-06T17:12:17.447Z,1.90
2018-07-06T17:14:47.876Z,1.87
2018-07-06T17:17:18.618Z,2.13
2018-07-06T17:19:48.802Z,1.80
2018-07-06T17:22:17.574Z,2.10
2018-07-06T17:24:48.256Z,2.10
2018-07-06T17:27:17.123Z,1.80
2018-07-06T17:29:47.588Z,2.73
2018-07-06T17:32:16.846Z,2.30
2018-07-06T17:34:45.742Z,2.30
2018-07-06T17:37:15.153Z,2.10
2018-07-06T17:39:45.804Z,2.50
2018-07-06T17:42:17.067Z,2.33
2018-07-06T17:44:47.280Z,2.60
2018-07-06T17:47:16.237Z,2.77
2018-07-06T17:49:46.232Z,2.30
2018-07-06T17:52:16.941Z,2.40
2018-07-06T17:54:45.984Z,2.80
2018-07-06T17:57:15.024Z,2.80
2018-07-06T17:59:48.804Z,2.70
2018-07-06T18:02:19.455Z,2.90
2018-07-06T18:04:49.149Z,2.90
2018-07-06T18:07:18.128Z,2.70
2018-07-06T18:09:47.391Z,2.80
2018-07-06T18:12:20.547Z,3.10
2018-07-06T18:14:51.646Z,3.67
2018-07-06T18:17:23.357Z,2.80
2018-07-06T18:19:53.092Z,3.43
2018-07-06T18:22:25.101Z,3.43
2018-07-06T18:24:56.722Z,3.43
2018-07-06T18:27:25.986Z,3.10
2018-07-06T18:29:57.244Z,3.90
2018-07-06T18:32:27.767Z,2.97
2018-07-06T18:34:57.026Z,2.83
2018-07-06T18:37:25.975Z,2.67
2018-07-06T18:39:54.874Z,2.50
2018-07-06T18:42:27.490Z,2.10
2018-07-06T18:45:00.033Z,2.20
2018-07-06T18:47:29.149Z,2.40
2018-07-06T18:50:00.412Z,2.27
2018-07-06T18:52:31.611Z,2.47
2018-07-06T18:55:00.651Z,2.87
2018-07-06T18:57:29.646Z,2.70
2018-07-06T19:00:01.038Z,2.53
2018-07-06T19:02:31.166Z,2.43
2018-07-06T19:05:00.304Z,2.80
2018-07-06T19:07:29.446Z,2.60
2018-07-06T19:10:00.479Z,3.00
2018-07-06T19:12:31.463Z,2.80
2018-07-06T19:15:02.308Z,2.70
2018-07-06T19:20:08.533Z,3.10
2018-07-06T19:22:37.679Z,2.97
2018-07-06T19:25:08.505Z,3.20
2018-07-06T19:27:38.963Z,2.90
2018-07-06T19:30:11.204Z,3.47
2018-07-06T19:32:40.416Z,3.03
2018-07-06T19:35:09.447Z,3.50
2018-07-06T19:37:38.846Z,4.33
2018-07-06T19:40:07.779Z,3.80
2018-07-06T19:42:38.425Z,3.57
2018-07-06T19:45:09.101Z,3.50
2018-07-06T19:47:38.161Z,4.27
2018-07-06T19:50:08.674Z,3.53
2018-07-06T19:52:39.321Z,3.83
2018-07-06T19:55:08.572Z,4.47
2018-07-06T19:57:37.676Z,4.20
2018-07-06T20:00:29.762Z,4.90
2018-07-06T20:03:01.814Z,4.20
2018-07-06T20:05:31.170Z,4.30
2018-07-06T20:08:01.047Z,3.83
2018-07-06T20:10:32.396Z,3.90
2018-07-06T20:13:04.164Z,4.10
2018-07-06T20:15:35.385Z,3.77
2018-07-06T20:18:11.520Z,3.87
2018-07-06T20:20:40.482Z,3.40
2018-07-06T20:23:09.995Z,3.63
2018-07-06T20:25:39.109Z,4.30
2018-07-06T20:28:08.250Z,3.80
2018-07-06T20:30:39.820Z,4.27
2018-07-06T20:33:09.080Z,4.53
2018-07-06T20:35:38.492Z,3.73
2018-07-06T20:38:07.577Z,4.50
2018-07-06T20:40:44.668Z,4.40
2018-07-06T20:43:14.982Z,3.80
2018-07-06T20:45:46.246Z,4.60
2018-07-06T20:48:19.116Z,4.13
2018-07-06T20:50:48.518Z,4.60
2018-07-06T20:53:22.010Z,4.30
2018-07-06T20:55:50.983Z,5.20
2018-07-06T20:58:19.722Z,5.00
2018-07-06T21:00:50.218Z,3.80
2018-07-06T21:03:19.201Z,4.37
2018-07-06T21:05:48.159Z,4.30
2018-07-06T21:08:17.764Z,3.73
2018-07-06T21:10:48.532Z,4.57
2018-07-06T21:13:18.014Z,4.50
2018-07-06T21:15:48.818Z,3.87
2018-07-06T21:18:19.039Z,5.50
2018-07-06T21:20:49.660Z,5.07
2018-07-06T21:23:25.514Z,5.20
2018-07-06T21:25:54.517Z,4.70
2018-07-06T21:28:23.515Z,4.77
2018-07-06T21:30:54.142Z,5.97
2018-07-06T21:33:23.144Z,4.17
2018-07-06T21:35:52.129Z,4.53
2018-07-06T21:38:21.323Z,4.97
2018-07-06T21:40:51.858Z,5.20
2018-07-06T21:43:22.274Z,5.03
2018-07-06T21:45:52.304Z,4.73
2018-07-06T21:48:22.814Z,4.17
2018-07-06T21:51:00.765Z,6.00
2018-07-06T21:53:31.839Z,5.27
2018-07-06T21:56:00.775Z,5.03
2018-07-06T21:58:29.787Z,5.17
2018-07-06T22:01:00.407Z,4.37
2018-07-06T22:03:29.708Z,5.30
2018-07-06T22:05:58.703Z,5.20
2018-07-06T22:08:27.727Z,4.93
2018-07-06T22:10:58.424Z,5.50
2018-07-06T22:13:28.820Z,5.20
2018-07-06T22:15:59.140Z,5.43
2018-07-06T22:18:29.870Z,5.10
2018-07-06T22:21:00.452Z,5.57
2018-07-06T22:23:29.956Z,5.27
2018-07-06T22:25:58.996Z,5.60
2018-07-06T22:28:37.107Z,5.80
2018-07-06T22:31:06.951Z,5.53
2018-07-06T22:33:36.158Z,5.80
2018-07-06T22:36:05.079Z,5.83
2018-07-06T22:38:34.396Z,5.53
2018-07-06T22:41:05.195Z,6.50
2018-07-06T22:43:37.047Z,5.40
2018-07-06T22:46:06.014Z,6.00
2018-07-06T22:48:36.613Z,5.90
2018-07-06T22:51:07.311Z,5.70
2018-07-06T22:53:36.611Z,5.43
2018-07-06T22:56:05.763Z,5.20
2018-07-06T22:58:34.752Z,5.37
2018-07-06T23:01:10.207Z,5.40
2018-07-06T23:03:39.520Z,5.50
2018-07-06T23:06:08.575Z,6.53
2018-07-06T23:08:40.005Z,6.50
2018-07-06T23:11:10.911Z,5.40
2018-07-06T23:13:40.555Z,5.30
2018-07-06T23:16:11.571Z,5.43
2018-07-06T23:18:41.575Z,5.60
2018-07-06T23:21:11.772Z,4.83
2018-07-06T23:23:41.188Z,6.20
2018-07-06T23:26:10.475Z,5.70
2018-07-06T23:28:41.328Z,5.60
2018-07-06T23:31:10.507Z,5.40
2018-07-06T23:33:39.954Z,5.10
2018-07-06T23:36:09.272Z,5.53
2018-07-06T23:38:38.262Z,5.10
2018-07-06T23:41:09.120Z,6.17
2018-07-06T23:43:39.458Z,5.43
2018-07-06T23:46:08.975Z,6.00
2018-07-06T23:48:40.393Z,6.00
2018-07-06T23:51:11.637Z,5.63
2018-07-06T23:53:40.851Z,5.23
2018-07-06T23:56:10.618Z,5.40
2018-07-06T23:58:39.856Z,5.40
